sensor_id;sensor_type;location;lat;lon;timestamp;P1;durP1;ratioP1;P2;durP2;ratioP2
23743;SDS011;12052;53.478;10.182;2023-12-07T00:02:03;89.95;;;24.38;;
23743;SDS011;12052;53.478;10.182;2023-12-07T00:04:29;72.85;;;21.98;;
23743;SDS011;12052;53.478;10.182;2023-12-07T00:06:55;84.60;;;22.63;;
23743;SDS011;12052;53.478;10.182;2023-12-07T00:09:21;85.88;;;24.08;;
23743;SDS011;12052;53.478;10.182;2023-12-07T00:11:46;84.40;;;22.80;;
23743;SDS011;12052;53.478;10.182;2023-12-07T00:14:12;82.03;;;24.75;;
23743;SDS011;12052;53.478;10.182;2023-12-07T00:16:38;84.53;;;24.25;;
23743;SDS011;12052;53.478;10.182;2023-12-07T00:19:04;87.88;;;24.88;;
23743;SDS011;12052;53.478;10.182;2023-12-07T00:21:30;90.88;;;23.67;;
23743;SDS011;12052;53.478;10.182;2023-12-07T00:23:58;75.70;;;22.40;;
23743;SDS011;12052;53.478;10.182;2023-12-07T00:26:29;79.35;;;23.13;;
23743;SDS011;12052;53.478;10.182;2023-12-07T00:30:15;72.45;;;21.48;;
23743;SDS011;12052;53.478;10.182;2023-12-07T00:37:16;63.42;;;20.17;;
23743;SDS011;12052;53.478;10.182;2023-12-07T00:40:18;67.35;;;19.95;;
23743;SDS011;12052;53.478;10.182;2023-12-07T00:42:50;69.40;;;21.70;;
23743;SDS011;12052;53.478;10.182;2023-12-07T00:45:29;59.42;;;20.70;;
23743;SDS011;12052;53.478;10.182;2023-12-07T00:47:55;64.28;;;21.58;;
23743;SDS011;12052;53.478;10.182;2023-12-07T00:50:21;77.22;;;22.80;;
23743;SDS011;12052;53.478;10.182;2023-12-07T00:52:52;79.22;;;24.45;;
23743;SDS011;12052;53.478;10.182;2023-12-07T00:55:23;74.78;;;22.48;;
23743;SDS011;12052;53.478;10.182;2023-12-07T00:58:00;73.35;;;21.52;;
23743;SDS011;12052;53.478;10.182;2023-12-07T01:00:28;69.63;;;23.05;;
23743;SDS011;12052;53.478;10.182;2023-12-07T01:03:11;67.10;;;22.50;;
23743;SDS011;12052;53.478;10.182;2023-12-07T01:06:17;64.80;;;20.13;;
23743;SDS011;12052;53.478;10.182;2023-12-07T01:09:02;68.68;;;20.63;;
23743;SDS011;12052;53.478;10.182;2023-12-07T01:15:17;63.20;;;20.48;;
23743;SDS011;12052;53.478;10.182;2023-12-07T01:17:48;75.10;;;22.60;;
23743;SDS011;12052;53.478;10.182;2023-12-07T01:20:45;57.17;;;19.67;;
23743;SDS011;12052;53.478;10.182;2023-12-07T01:23:12;64.43;;;20.05;;
23743;SDS011;12052;53.478;10.182;2023-12-07T01:25:42;75.07;;;22.55;;
23743;SDS011;12052;53.478;10.182;2023-12-07T01:31:41;64.32;;;22.58;;
23743;SDS011;12052;53.478;10.182;2023-12-07T01:37:35;62.72;;;21.20;;
23743;SDS011;12052;53.478;10.182;2023-12-07T01:40:29;54.00;;;19.60;;
23743;SDS011;12052;53.478;10.182;2023-12-07T01:43:45;55.85;;;19.00;;
23743;SDS011;12052;53.478;10.182;2023-12-07T01:54:06;54.72;;;19.98;;
23743;SDS011;12052;53.478;10.182;2023-12-07T01:56:32;61.25;;;20.13;;
23743;SDS011;12052;53.478;10.182;2023-12-07T01:58:57;57.75;;;21.20;;
23743;SDS011;12052;53.478;10.182;2023-12-07T02:01:23;57.42;;;19.00;;
23743;SDS011;12052;53.478;10.182;2023-12-07T02:03:49;67.63;;;19.05;;
23743;SDS011;12052;53.478;10.182;2023-12-07T02:06:15;58.55;;;18.73;;
23743;SDS011;12052;53.478;10.182;2023-12-07T02:08:41;56.63;;;20.23;;
23743;SDS011;12052;53.478;10.182;2023-12-07T02:11:07;54.78;;;20.77;;
23743;SDS011;12052;53.478;10.182;2023-12-07T02:13:35;61.13;;;19.13;;
23743;SDS011;12052;53.478;10.182;2023-12-07T02:16:03;74.55;;;22.50;;
23743;SDS011;12052;53.478;10.182;2023-12-07T02:18:40;66.25;;;22.13;;
23743;SDS011;12052;53.478;10.182;2023-12-07T02:24:03;59.72;;;19.20;;
23743;SDS011;12052;53.478;10.182;2023-12-07T02:26:36;49.65;;;19.08;;
23743;SDS011;12052;53.478;10.182;2023-12-07T02:31:28;56.17;;;16.40;;
23743;SDS011;12052;53.478;10.182;2023-12-07T02:33:55;53.40;;;19.35;;
23743;SDS011;12052;53.478;10.182;2023-12-07T02:36:22;76.43;;;22.13;;
23743;SDS011;12052;53.478;10.182;2023-12-07T02:38:51;67.95;;;20.65;;
23743;SDS011;12052;53.478;10.182;2023-12-07T02:41:21;55.47;;;21.92;;
23743;SDS011;12052;53.478;10.182;2023-12-07T02:43:47;62.05;;;21.65;;
23743;SDS011;12052;53.478;10.182;2023-12-07T02:46:13;64.88;;;20.63;;
23743;SDS011;12052;53.478;10.182;2023-12-07T02:48:39;55.55;;;20.20;;
23743;SDS011;12052;53.478;10.182;2023-12-07T02:51:04;61.83;;;19.25;;
23743;SDS011;12052;53.478;10.182;2023-12-07T02:53:30;67.85;;;20.70;;
23743;SDS011;12052;53.478;10.182;2023-12-07T02:55:55;58.33;;;18.52;;
23743;SDS011;12052;53.478;10.182;2023-12-07T02:58:21;44.90;;;16.75;;
23743;SDS011;12052;53.478;10.182;2023-12-07T03:00:47;54.58;;;19.15;;
23743;SDS011;12052;53.478;10.182;2023-12-07T03:03:12;51.75;;;19.50;;
23743;SDS011;12052;53.478;10.182;2023-12-07T03:05:38;52.85;;;19.35;;
23743;SDS011;12052;53.478;10.182;2023-12-07T03:08:03;52.97;;;18.80;;
23743;SDS011;12052;53.478;10.182;2023-12-07T03:10:29;54.83;;;17.23;;
23743;SDS011;12052;53.478;10.182;2023-12-07T03:12:54;48.50;;;18.20;;
23743;SDS011;12052;53.478;10.182;2023-12-07T03:15:20;53.35;;;20.58;;
23743;SDS011;12052;53.478;10.182;2023-12-07T03:17:46;51.28;;;16.85;;
23743;SDS011;12052;53.478;10.182;2023-12-07T03:20:11;51.50;;;17.90;;
23743;SDS011;12052;53.478;10.182;2023-12-07T03:22:37;51.85;;;19.13;;
23743;SDS011;12052;53.478;10.182;2023-12-07T03:25:03;48.42;;;17.08;;
23743;SDS011;12052;53.478;10.182;2023-12-07T03:27:29;45.42;;;17.23;;
23743;SDS011;12052;53.478;10.182;2023-12-07T03:29:54;46.05;;;17.08;;
23743;SDS011;12052;53.478;10.182;2023-12-07T03:32:20;51.45;;;16.27;;
23743;SDS011;12052;53.478;10.182;2023-12-07T03:34:45;59.72;;;18.52;;
23743;SDS011;12052;53.478;10.182;2023-12-07T03:37:11;49.45;;;17.45;;
23743;SDS011;12052;53.478;10.182;2023-12-07T03:39:37;44.65;;;17.58;;
23743;SDS011;12052;53.478;10.182;2023-12-07T03:42:02;48.22;;;16.48;;
23743;SDS011;12052;53.478;10.182;2023-12-07T03:44:28;55.35;;;17.73;;
23743;SDS011;12052;53.478;10.182;2023-12-07T03:46:54;44.00;;;16.85;;
23743;SDS011;12052;53.478;10.182;2023-12-07T03:49:19;63.75;;;18.67;;
23743;SDS011;12052;53.478;10.182;2023-12-07T03:51:45;50.20;;;18.08;;
23743;SDS011;12052;53.478;10.182;2023-12-07T03:54:11;61.05;;;19.98;;
23743;SDS011;12052;53.478;10.182;2023-12-07T03:56:36;42.47;;;18.90;;
23743;SDS011;12052;53.478;10.182;2023-12-07T03:59:02;53.08;;;17.77;;
23743;SDS011;12052;53.478;10.182;2023-12-07T04:01:28;67.90;;;20.90;;
23743;SDS011;12052;53.478;10.182;2023-12-07T04:03:55;60.22;;;19.38;;
23743;SDS011;12052;53.478;10.182;2023-12-07T04:06:22;65.13;;;21.65;;
23743;SDS011;12052;53.478;10.182;2023-12-07T04:08:48;54.85;;;18.45;;
23743;SDS011;12052;53.478;10.182;2023-12-07T04:11:14;53.00;;;18.08;;
23743;SDS011;12052;53.478;10.182;2023-12-07T04:13:40;58.22;;;18.58;;
23743;SDS011;12052;53.478;10.182;2023-12-07T04:16:06;83.18;;;21.55;;
23743;SDS011;12052;53.478;10.182;2023-12-07T04:18:32;66.20;;;20.13;;
23743;SDS011;12052;53.478;10.182;2023-12-07T04:20:58;66.50;;;23.23;;
23743;SDS011;12052;53.478;10.182;2023-12-07T04:23:24;57.47;;;21.05;;
23743;SDS011;12052;53.478;10.182;2023-12-07T04:25:50;52.72;;;16.67;;
23743;SDS011;12052;53.478;10.182;2023-12-07T04:28:15;75.90;;;20.00;;
23743;SDS011;12052;53.478;10.182;2023-12-07T04:30:41;59.40;;;19.95;;
23743;SDS011;12052;53.478;10.182;2023-12-07T04:33:06;59.20;;;20.52;;
23743;SDS011;12052;53.478;10.182;2023-12-07T04:35:32;63.08;;;18.80;;
23743;SDS011;12052;53.478;10.182;2023-12-07T04:37:58;69.95;;;21.13;;
23743;SDS011;12052;53.478;10.182;2023-12-07T04:40:24;68.25;;;20.17;;
23743;SDS011;12052;53.478;10.182;2023-12-07T04:42:50;76.82;;;20.98;;
23743;SDS011;12052;53.478;10.182;2023-12-07T04:45:15;50.85;;;18.20;;
23743;SDS011;12052;53.478;10.182;2023-12-07T04:47:41;56.90;;;18.60;;
23743;SDS011;12052;53.478;10.182;2023-12-07T04:50:07;76.47;;;21.83;;
23743;SDS011;12052;53.478;10.182;2023-12-07T04:52:33;56.72;;;18.42;;
23743;SDS011;12052;53.478;10.182;2023-12-07T04:54:59;42.72;;;17.90;;
23743;SDS011;12052;53.478;10.182;2023-12-07T04:57:24;66.72;;;21.25;;
23743;SDS011;12052;53.478;10.182;2023-12-07T04:59:50;58.58;;;18.27;;
23743;SDS011;12052;53.478;10.182;2023-12-07T05:02:16;71.10;;;19.67;;
23743;SDS011;12052;53.478;10.182;2023-12-07T05:04:42;66.25;;;19.42;;
23743;SDS011;12052;53.478;10.182;2023-12-07T05:07:08;64.93;;;17.33;;
23743;SDS011;12052;53.478;10.182;2023-12-07T05:09:34;58.25;;;18.42;;
23743;SDS011;12052;53.478;10.182;2023-12-07T05:12:00;58.25;;;18.70;;
23743;SDS011;12052;53.478;10.182;2023-12-07T05:14:25;56.65;;;18.60;;
23743;SDS011;12052;53.478;10.182;2023-12-07T05:16:51;64.82;;;18.95;;
23743;SDS011;12052;53.478;10.182;2023-12-07T05:19:20;48.33;;;15.57;;
23743;SDS011;12052;53.478;10.182;2023-12-07T05:21:47;63.90;;;19.98;;
23743;SDS011;12052;53.478;10.182;2023-12-07T05:24:13;56.17;;;17.55;;
23743;SDS011;12052;53.478;10.182;2023-12-07T05:26:40;52.65;;;19.23;;
23743;SDS011;12052;53.478;10.182;2023-12-07T05:29:07;67.72;;;21.73;;
23743;SDS011;12052;53.478;10.182;2023-12-07T05:31:32;66.75;;;19.55;;
23743;SDS011;12052;53.478;10.182;2023-12-07T05:33:58;55.72;;;18.75;;
23743;SDS011;12052;53.478;10.182;2023-12-07T05:36:23;65.85;;;18.67;;
23743;SDS011;12052;53.478;10.182;2023-12-07T05:38:49;53.00;;;19.38;;
23743;SDS011;12052;53.478;10.182;2023-12-07T05:41:15;55.38;;;19.60;;
23743;SDS011;12052;53.478;10.182;2023-12-07T05:43:41;57.63;;;18.45;;
23743;SDS011;12052;53.478;10.182;2023-12-07T05:46:09;64.15;;;18.35;;
23743;SDS011;12052;53.478;10.182;2023-12-07T05:48:34;51.33;;;17.67;;
23743;SDS011;12052;53.478;10.182;2023-12-07T05:51:03;55.58;;;20.08;;
23743;SDS011;12052;53.478;10.182;2023-12-07T05:53:29;46.80;;;19.13;;
23743;SDS011;12052;53.478;10.182;2023-12-07T05:55:57;53.75;;;18.05;;
23743;SDS011;12052;53.478;10.182;2023-12-07T05:58:23;58.60;;;17.98;;
23743;SDS011;12052;53.478;10.182;2023-12-07T06:00:49;50.25;;;17.70;;
23743;SDS011;12052;53.478;10.182;2023-12-07T06:03:14;66.90;;;19.25;;
23743;SDS011;12052;53.478;10.182;2023-12-07T06:05:40;60.45;;;18.55;;
23743;SDS011;12052;53.478;10.182;2023-12-07T06:08:06;46.50;;;20.15;;
23743;SDS011;12052;53.478;10.182;2023-12-07T06:10:32;49.95;;;18.80;;
23743;SDS011;12052;53.478;10.182;2023-12-07T06:12:58;51.38;;;17.30;;
23743;SDS011;12052;53.478;10.182;2023-12-07T06:15:25;59.13;;;19.52;;
23743;SDS011;12052;53.478;10.182;2023-12-07T06:17:52;52.35;;;19.98;;
23743;SDS011;12052;53.478;10.182;2023-12-07T06:20:19;52.28;;;20.25;;
23743;SDS011;12052;53.478;10.182;2023-12-07T06:22:45;61.75;;;20.35;;
23743;SDS011;12052;53.478;10.182;2023-12-07T06:25:10;52.88;;;19.23;;
23743;SDS011;12052;53.478;10.182;2023-12-07T06:27:36;49.95;;;18.75;;
23743;SDS011;12052;53.478;10.182;2023-12-07T06:30:02;51.70;;;18.95;;
23743;SDS011;12052;53.478;10.182;2023-12-07T06:32:30;56.63;;;18.70;;
23743;SDS011;12052;53.478;10.182;2023-12-07T06:34:56;45.55;;;18.83;;
23743;SDS011;12052;53.478;10.182;2023-12-07T06:37:22;48.00;;;18.45;;
23743;SDS011;12052;53.478;10.182;2023-12-07T06:39:48;46.00;;;17.17;;
23743;SDS011;12052;53.478;10.182;2023-12-07T06:42:14;55.67;;;20.38;;
23743;SDS011;12052;53.478;10.182;2023-12-07T06:44:40;52.10;;;19.25;;
23743;SDS011;12052;53.478;10.182;2023-12-07T06:47:08;51.80;;;20.48;;
23743;SDS011;12052;53.478;10.182;2023-12-07T06:49:34;52.05;;;18.63;;
23743;SDS011;12052;53.478;10.182;2023-12-07T06:52:01;54.75;;;19.00;;
23743;SDS011;12052;53.478;10.182;2023-12-07T06:54:26;53.10;;;19.13;;
23743;SDS011;12052;53.478;10.182;2023-12-07T06:56:52;45.17;;;17.75;;
23743;SDS011;12052;53.478;10.182;2023-12-07T06:59:18;46.22;;;18.40;;
23743;SDS011;12052;53.478;10.182;2023-12-07T07:01:45;50.17;;;19.27;;
23743;SDS011;12052;53.478;10.182;2023-12-07T07:04:10;47.65;;;19.73;;
23743;SDS011;12052;53.478;10.182;2023-12-07T07:06:36;47.22;;;19.38;;
23743;SDS011;12052;53.478;10.182;2023-12-07T07:09:01;54.90;;;20.55;;
23743;SDS011;12052;53.478;10.182;2023-12-07T07:11:29;50.47;;;19.83;;
23743;SDS011;12052;53.478;10.182;2023-12-07T07:13:55;50.35;;;19.27;;
23743;SDS011;12052;53.478;10.182;2023-12-07T07:16:21;50.88;;;17.77;;
23743;SDS011;12052;53.478;10.182;2023-12-07T07:18:46;50.65;;;19.58;;
23743;SDS011;12052;53.478;10.182;2023-12-07T07:21:12;47.72;;;19.05;;
23743;SDS011;12052;53.478;10.182;2023-12-07T07:23:37;45.10;;;18.83;;
23743;SDS011;12052;53.478;10.182;2023-12-07T07:26:03;41.78;;;18.25;;
23743;SDS011;12052;53.478;10.182;2023-12-07T07:28:29;53.47;;;21.70;;
23743;SDS011;12052;53.478;10.182;2023-12-07T07:30:54;43.40;;;20.38;;
23743;SDS011;12052;53.478;10.182;2023-12-07T07:33:20;48.40;;;19.88;;
23743;SDS011;12052;53.478;10.182;2023-12-07T07:35:46;61.25;;;20.88;;
23743;SDS011;12052;53.478;10.182;2023-12-07T07:38:12;45.30;;;19.13;;
23743;SDS011;12052;53.478;10.182;2023-12-07T07:40:37;43.50;;;18.17;;
23743;SDS011;12052;53.478;10.182;2023-12-07T07:43:03;51.17;;;19.30;;
23743;SDS011;12052;53.478;10.182;2023-12-07T07:45:28;47.38;;;19.63;;
23743;SDS011;12052;53.478;10.182;2023-12-07T07:47:54;53.55;;;18.58;;
23743;SDS011;12052;53.478;10.182;2023-12-07T07:50:19;53.95;;;20.70;;
23743;SDS011;12052;53.478;10.182;2023-12-07T07:52:45;45.83;;;17.67;;
23743;SDS011;12052;53.478;10.182;2023-12-07T07:55:11;45.92;;;17.90;;
23743;SDS011;12052;53.478;10.182;2023-12-07T07:57:37;40.78;;;16.92;;
23743;SDS011;12052;53.478;10.182;2023-12-07T08:00:02;47.67;;;17.27;;
23743;SDS011;12052;53.478;10.182;2023-12-07T08:02:33;44.30;;;18.20;;
23743;SDS011;12052;53.478;10.182;2023-12-07T08:04:59;48.67;;;17.15;;
23743;SDS011;12052;53.478;10.182;2023-12-07T08:07:24;43.90;;;15.82;;
23743;SDS011;12052;53.478;10.182;2023-12-07T08:09:50;40.58;;;18.00;;
23743;SDS011;12052;53.478;10.182;2023-12-07T08:12:16;44.83;;;18.27;;
23743;SDS011;12052;53.478;10.182;2023-12-07T08:14:41;48.95;;;18.65;;
23743;SDS011;12052;53.478;10.182;2023-12-07T08:17:08;42.42;;;17.02;;
23743;SDS011;12052;53.478;10.182;2023-12-07T08:19:34;50.70;;;19.05;;
23743;SDS011;12052;53.478;10.182;2023-12-07T08:22:00;50.80;;;20.38;;
23743;SDS011;12052;53.478;10.182;2023-12-07T08:24:26;54.10;;;21.13;;
23743;SDS011;12052;53.478;10.182;2023-12-07T08:26:51;38.83;;;17.55;;
23743;SDS011;12052;53.478;10.182;2023-12-07T08:29:17;49.90;;;21.05;;
23743;SDS011;12052;53.478;10.182;2023-12-07T08:31:43;50.13;;;20.02;;
23743;SDS011;12052;53.478;10.182;2023-12-07T08:34:09;44.25;;;18.55;;
23743;SDS011;12052;53.478;10.182;2023-12-07T08:36:34;46.72;;;19.13;;
23743;SDS011;12052;53.478;10.182;2023-12-07T08:39:00;51.17;;;20.25;;
23743;SDS011;12052;53.478;10.182;2023-12-07T08:41:25;51.67;;;20.98;;
23743;SDS011;12052;53.478;10.182;2023-12-07T08:43:51;47.35;;;18.88;;
23743;SDS011;12052;53.478;10.182;2023-12-07T08:46:16;51.20;;;20.88;;
23743;SDS011;12052;53.478;10.182;2023-12-07T08:48:42;55.88;;;20.75;;
23743;SDS011;12052;53.478;10.182;2023-12-07T08:51:08;51.28;;;19.77;;
23743;SDS011;12052;53.478;10.182;2023-12-07T08:53:34;48.13;;;20.50;;
23743;SDS011;12052;53.478;10.182;2023-12-07T08:56:00;46.17;;;18.17;;
23743;SDS011;12052;53.478;10.182;2023-12-07T08:58:26;51.85;;;21.15;;
23743;SDS011;12052;53.478;10.182;2023-12-07T09:00:52;46.92;;;19.60;;
23743;SDS011;12052;53.478;10.182;2023-12-07T09:03:17;49.20;;;20.35;;
23743;SDS011;12052;53.478;10.182;2023-12-07T09:05:43;46.67;;;20.17;;
23743;SDS011;12052;53.478;10.182;2023-12-07T09:08:08;55.15;;;20.80;;
23743;SDS011;12052;53.478;10.182;2023-12-07T09:10:34;50.67;;;21.33;;
23743;SDS011;12052;53.478;10.182;2023-12-07T09:13:00;57.90;;;22.25;;
23743;SDS011;12052;53.478;10.182;2023-12-07T09:15:26;48.20;;;20.00;;
23743;SDS011;12052;53.478;10.182;2023-12-07T09:17:51;53.85;;;21.60;;
23743;SDS011;12052;53.478;10.182;2023-12-07T09:20:17;54.95;;;20.30;;
23743;SDS011;12052;53.478;10.182;2023-12-07T09:22:43;57.25;;;21.35;;
23743;SDS011;12052;53.478;10.182;2023-12-07T09:25:10;45.50;;;18.60;;
23743;SDS011;12052;53.478;10.182;2023-12-07T09:27:36;50.22;;;19.98;;
23743;SDS011;12052;53.478;10.182;2023-12-07T09:30:06;50.33;;;20.48;;
23743;SDS011;12052;53.478;10.182;2023-12-07T09:32:35;71.30;;;21.65;;
23743;SDS011;12052;53.478;10.182;2023-12-07T09:35:04;46.70;;;19.33;;
23743;SDS011;12052;53.478;10.182;2023-12-07T09:37:32;47.80;;;19.88;;
23743;SDS011;12052;53.478;10.182;2023-12-07T09:39:57;49.38;;;19.98;;
23743;SDS011;12052;53.478;10.182;2023-12-07T09:42:23;48.78;;;20.77;;
23743;SDS011;12052;53.478;10.182;2023-12-07T09:44:49;45.47;;;19.83;;
23743;SDS011;12052;53.478;10.182;2023-12-07T09:47:15;58.75;;;22.45;;
23743;SDS011;12052;53.478;10.182;2023-12-07T09:49:41;52.17;;;20.52;;
23743;SDS011;12052;53.478;10.182;2023-12-07T09:52:07;48.58;;;20.35;;
23743;SDS011;12052;53.478;10.182;2023-12-07T09:54:33;56.22;;;20.27;;
23743;SDS011;12052;53.478;10.182;2023-12-07T09:57:00;51.05;;;22.00;;
23743;SDS011;12052;53.478;10.182;2023-12-07T09:59:26;51.78;;;19.10;;
23743;SDS011;12052;53.478;10.182;2023-12-07T10:01:52;52.83;;;20.27;;
23743;SDS011;12052;53.478;10.182;2023-12-07T10:04:21;52.60;;;21.23;;
23743;SDS011;12052;53.478;10.182;2023-12-07T10:06:50;48.90;;;19.15;;
23743;SDS011;12052;53.478;10.182;2023-12-07T10:09:17;52.13;;;20.63;;
23743;SDS011;12052;53.478;10.182;2023-12-07T10:11:49;56.42;;;21.13;;
23743;SDS011;12052;53.478;10.182;2023-12-07T10:14:15;50.25;;;19.95;;
23743;SDS011;12052;53.478;10.182;2023-12-07T10:16:53;48.88;;;19.30;;
23743;SDS011;12052;53.478;10.182;2023-12-07T10:19:22;51.55;;;20.63;;
23743;SDS011;12052;53.478;10.182;2023-12-07T10:21:50;60.85;;;18.40;;
23743;SDS011;12052;53.478;10.182;2023-12-07T10:24:21;50.88;;;18.65;;
23743;SDS011;12052;53.478;10.182;2023-12-07T10:26:49;56.42;;;22.67;;
23743;SDS011;12052;53.478;10.182;2023-12-07T10:29:18;50.40;;;20.35;;
23743;SDS011;12052;53.478;10.182;2023-12-07T10:31:48;55.67;;;21.27;;
23743;SDS011;12052;53.478;10.182;2023-12-07T10:34:15;53.00;;;20.70;;
23743;SDS011;12052;53.478;10.182;2023-12-07T10:36:45;53.03;;;21.70;;
23743;SDS011;12052;53.478;10.182;2023-12-07T10:39:11;49.55;;;19.92;;
23743;SDS011;12052;53.478;10.182;2023-12-07T10:41:37;52.33;;;19.08;;
23743;SDS011;12052;53.478;10.182;2023-12-07T10:44:04;46.47;;;18.73;;
23743;SDS011;12052;53.478;10.182;2023-12-07T10:46:33;43.92;;;18.75;;
23743;SDS011;12052;53.478;10.182;2023-12-07T10:49:00;49.15;;;18.88;;
23743;SDS011;12052;53.478;10.182;2023-12-07T10:51:37;54.03;;;19.83;;
23743;SDS011;12052;53.478;10.182;2023-12-07T10:54:07;53.33;;;21.35;;
23743;SDS011;12052;53.478;10.182;2023-12-07T10:56:43;54.25;;;20.48;;
23743;SDS011;12052;53.478;10.182;2023-12-07T10:59:11;52.88;;;21.40;;
23743;SDS011;12052;53.478;10.182;2023-12-07T11:01:41;55.22;;;21.17;;
23743;SDS011;12052;53.478;10.182;2023-12-07T11:04:12;48.20;;;19.23;;
23743;SDS011;12052;53.478;10.182;2023-12-07T11:06:42;59.10;;;20.10;;
23743;SDS011;12052;53.478;10.182;2023-12-07T11:09:13;52.47;;;21.42;;
23743;SDS011;12052;53.478;10.182;2023-12-07T11:11:52;49.88;;;19.05;;
23743;SDS011;12052;53.478;10.182;2023-12-07T11:14:22;52.63;;;21.40;;
23743;SDS011;12052;53.478;10.182;2023-12-07T11:16:49;49.45;;;20.48;;
23743;SDS011;12052;53.478;10.182;2023-12-07T11:22:09;53.20;;;20.25;;
23743;SDS011;12052;53.478;10.182;2023-12-07T11:24:36;57.40;;;19.88;;
23743;SDS011;12052;53.478;10.182;2023-12-07T11:27:02;49.83;;;18.80;;
23743;SDS011;12052;53.478;10.182;2023-12-07T11:29:28;44.85;;;18.58;;
23743;SDS011;12052;53.478;10.182;2023-12-07T11:31:55;42.17;;;18.30;;
23743;SDS011;12052;53.478;10.182;2023-12-07T11:34:38;40.70;;;16.10;;
23743;SDS011;12052;53.478;10.182;2023-12-07T11:37:08;47.53;;;18.45;;
23743;SDS011;12052;53.478;10.182;2023-12-07T11:39:35;50.05;;;19.63;;
23743;SDS011;12052;53.478;10.182;2023-12-07T11:42:09;49.00;;;18.65;;
23743;SDS011;12052;53.478;10.182;2023-12-07T11:44:39;47.17;;;17.55;;
23743;SDS011;12052;53.478;10.182;2023-12-07T11:47:06;51.05;;;19.55;;
23743;SDS011;12052;53.478;10.182;2023-12-07T11:49:33;43.97;;;17.50;;
23743;SDS011;12052;53.478;10.182;2023-12-07T11:51:59;49.53;;;20.95;;
23743;SDS011;12052;53.478;10.182;2023-12-07T11:54:26;53.78;;;19.58;;
23743;SDS011;12052;53.478;10.182;2023-12-07T11:56:55;52.80;;;18.17;;
23743;SDS011;12052;53.478;10.182;2023-12-07T11:59:21;49.20;;;18.80;;
23743;SDS011;12052;53.478;10.182;2023-12-07T12:01:48;41.03;;;18.45;;
23743;SDS011;12052;53.478;10.182;2023-12-07T12:04:17;49.67;;;18.33;;
23743;SDS011;12052;53.478;10.182;2023-12-07T12:06:45;47.67;;;19.55;;
23743;SDS011;12052;53.478;10.182;2023-12-07T12:09:12;56.70;;;21.15;;
23743;SDS011;12052;53.478;10.182;2023-12-07T12:11:43;56.28;;;19.67;;
23743;SDS011;12052;53.478;10.182;2023-12-07T12:14:11;55.25;;;20.15;;
23743;SDS011;12052;53.478;10.182;2023-12-07T12:16:41;51.17;;;20.70;;
23743;SDS011;12052;53.478;10.182;2023-12-07T12:19:07;54.33;;;19.73;;
23743;SDS011;12052;53.478;10.182;2023-12-07T12:21:34;59.28;;;19.67;;
23743;SDS011;12052;53.478;10.182;2023-12-07T12:24:00;54.25;;;19.45;;
23743;SDS011;12052;53.478;10.182;2023-12-07T12:26:26;51.30;;;20.13;;
23743;SDS011;12052;53.478;10.182;2023-12-07T12:28:53;55.60;;;20.40;;
23743;SDS011;12052;53.478;10.182;2023-12-07T12:31:19;49.45;;;18.75;;
23743;SDS011;12052;53.478;10.182;2023-12-07T12:33:45;53.50;;;21.30;;
23743;SDS011;12052;53.478;10.182;2023-12-07T12:36:12;53.30;;;20.42;;
23743;SDS011;12052;53.478;10.182;2023-12-07T12:38:38;54.67;;;20.35;;
23743;SDS011;12052;53.478;10.182;2023-12-07T12:41:04;57.35;;;21.17;;
23743;SDS011;12052;53.478;10.182;2023-12-07T12:43:31;58.35;;;21.20;;
23743;SDS011;12052;53.478;10.182;2023-12-07T12:45:57;53.97;;;20.10;;
23743;SDS011;12052;53.478;10.182;2023-12-07T12:48:23;60.95;;;20.92;;
23743;SDS011;12052;53.478;10.182;2023-12-07T12:50:48;53.78;;;21.13;;
23743;SDS011;12052;53.478;10.182;2023-12-07T12:53:14;55.15;;;22.48;;
23743;SDS011;12052;53.478;10.182;2023-12-07T12:55:41;59.22;;;20.85;;
23743;SDS011;12052;53.478;10.182;2023-12-07T12:58:09;53.15;;;21.15;;
23743;SDS011;12052;53.478;10.182;2023-12-07T13:00:37;55.83;;;21.00;;
23743;SDS011;12052;53.478;10.182;2023-12-07T13:03:04;60.35;;;22.50;;
23743;SDS011;12052;53.478;10.182;2023-12-07T13:05:31;53.90;;;21.33;;
23743;SDS011;12052;53.478;10.182;2023-12-07T13:07:58;61.75;;;21.40;;
23743;SDS011;12052;53.478;10.182;2023-12-07T13:10:27;57.10;;;21.00;;
23743;SDS011;12052;53.478;10.182;2023-12-07T13:12:53;46.28;;;17.08;;
23743;SDS011;12052;53.478;10.182;2023-12-07T13:15:19;49.95;;;21.33;;
23743;SDS011;12052;53.478;10.182;2023-12-07T13:17:44;61.90;;;21.42;;
23743;SDS011;12052;53.478;10.182;2023-12-07T13:20:10;59.03;;;20.42;;
23743;SDS011;12052;53.478;10.182;2023-12-07T13:22:42;55.70;;;21.70;;
23743;SDS011;12052;53.478;10.182;2023-12-07T13:25:08;56.00;;;20.67;;
23743;SDS011;12052;53.478;10.182;2023-12-07T13:27:35;53.65;;;22.35;;
23743;SDS011;12052;53.478;10.182;2023-12-07T13:30:01;60.38;;;24.73;;
23743;SDS011;12052;53.478;10.182;2023-12-07T13:32:30;60.85;;;22.80;;
23743;SDS011;12052;53.478;10.182;2023-12-07T13:34:56;52.97;;;22.73;;
23743;SDS011;12052;53.478;10.182;2023-12-07T13:37:22;57.55;;;21.48;;
23743;SDS011;12052;53.478;10.182;2023-12-07T13:39:47;59.38;;;21.10;;
23743;SDS011;12052;53.478;10.182;2023-12-07T13:42:20;52.95;;;21.02;;
23743;SDS011;12052;53.478;10.182;2023-12-07T13:44:46;54.90;;;20.88;;
23743;SDS011;12052;53.478;10.182;2023-12-07T13:47:12;58.38;;;23.05;;
23743;SDS011;12052;53.478;10.182;2023-12-07T13:49:42;59.00;;;21.85;;
23743;SDS011;12052;53.478;10.182;2023-12-07T13:52:07;63.38;;;21.95;;
23743;SDS011;12052;53.478;10.182;2023-12-07T13:54:33;50.75;;;19.55;;
23743;SDS011;12052;53.478;10.182;2023-12-07T13:57:01;56.63;;;22.23;;
23743;SDS011;12052;53.478;10.182;2023-12-07T13:59:28;58.05;;;23.50;;
23743;SDS011;12052;53.478;10.182;2023-12-07T14:01:54;54.72;;;22.73;;
23743;SDS011;12052;53.478;10.182;2023-12-07T14:04:20;49.35;;;20.63;;
23743;SDS011;12052;53.478;10.182;2023-12-07T14:06:46;51.72;;;20.45;;
23743;SDS011;12052;53.478;10.182;2023-12-07T14:09:11;58.42;;;22.27;;
23743;SDS011;12052;53.478;10.182;2023-12-07T14:11:37;49.15;;;20.25;;
23743;SDS011;12052;53.478;10.182;2023-12-07T14:14:04;57.03;;;20.02;;
23743;SDS011;12052;53.478;10.182;2023-12-07T14:25:02;49.28;;;19.98;;
23743;SDS011;12052;53.478;10.182;2023-12-07T14:27:28;50.42;;;19.90;;
23743;SDS011;12052;53.478;10.182;2023-12-07T14:29:54;49.72;;;18.98;;
23743;SDS011;12052;53.478;10.182;2023-12-07T14:32:20;53.72;;;20.40;;
23743;SDS011;12052;53.478;10.182;2023-12-07T14:34:46;46.40;;;18.40;;
23743;SDS011;12052;53.478;10.182;2023-12-07T14:37:11;51.38;;;19.55;;
23743;SDS011;12052;53.478;10.182;2023-12-07T14:39:38;45.70;;;20.70;;
23743;SDS011;12052;53.478;10.182;2023-12-07T14:42:04;46.45;;;20.65;;
23743;SDS011;12052;53.478;10.182;2023-12-07T14:44:30;49.53;;;20.35;;
23743;SDS011;12052;53.478;10.182;2023-12-07T14:46:56;50.22;;;19.90;;
23743;SDS011;12052;53.478;10.182;2023-12-07T14:49:22;43.17;;;19.33;;
23743;SDS011;12052;53.478;10.182;2023-12-07T14:51:48;53.10;;;19.70;;